CheckWX is a tool to help pilots better visualize weather data.  It is not intended as a substitute for an official pre-flight weather briefing.

23:20:40 UTC

KPHL METAR
Philadelphia International Airport
Philadelphia, Pennsylvania, USA
Current

27 mins ago

KPHL 052254Z 23011KT 10SM FEW085 BKN250 18/06 A2999 RMK AO2 SLP154 T01780061
Observed
Apr-5 @ 22:54 UTC
Wind
  • 230° at 11 KTS
Visibility
Flight Rules
VFR
Cloud Levels
  • Few at 8,500' AGL
  • Broken at 25,000' AGL
Temperature
18°C / 64°F
Dewpoint
C / 43°F
Humidity
46%
Altimeter
29.99" Hg
Pressure
1015.62 hPa
Previous

1 hour ago

KPHL 052154Z 22012KT 10SM FEW055 BKN085 BKN250 19/07 A2999 RMK AO2 SLP154 T01890067
Observed
Apr-5 @ 21:54 UTC
Wind
  • 220° at 12 KTS
Visibility
Flight Rules
VFR
Cloud Levels
  • Few at 5,500' AGL
  • Broken at 8,500' AGL
  • Broken at 25,000' AGL
Temperature
19°C / 66°F
Dewpoint
C / 45°F
Humidity
46%
Altimeter
29.99" Hg
Pressure
1015.62 hPa
Previous

2 hours ago

KPHL 052054Z 21009KT 10SM FEW055 SCT075 BKN250 19/07 A2999 RMK AO2 SLP154 T01940067 56014
Observed
Apr-5 @ 20:54 UTC
Wind
  • 210° at 9 KTS
Visibility
Flight Rules
VFR
Cloud Levels
  • Few at 5,500' AGL
  • Scattered at 7,500' AGL
  • Broken at 25,000' AGL
Temperature
19°C / 66°F
Dewpoint
C / 45°F
Humidity
46%
Altimeter
29.99" Hg
Pressure
1015.62 hPa